Time;durP1;ratioP1;P1;durP2;ratioP2;P2;SDS_P1;SDS_P2;PMS_P1;PMS_P2;Temp;Humidity;BMP_temperature;BMP_pressure;BME280_temperature;BME280_humidity;BME280_pressure;Samples;Min_cycle;Max_cycle;Signal;HPM_P1;HPM_P2
2022/03/05 00:01:12;;;;;;;3.08;2.77;;;;;;;5.11;51.24;99224.54;1744097;80;20996;-63
2022/03/05 00:03:39;;;;;;;4.30;2.95;;;;;;;5.09;51.31;99230.42;1755034;80;20904;-66
2022/03/05 00:06:06;;;;;;;3.25;2.80;;;;;;;5.12;51.35;99226.19;1756908;80;21248;-62
2022/03/05 00:08:34;;;;;;;3.65;2.52;;;;;;;5.12;51.28;99224.39;1744887;80;20948;-65
2022/03/05 00:11:00;;;;;;;3.72;2.75;;;;;;;5.16;51.02;99228.42;1744117;80;20933;-62
2022/03/05 00:13:28;;;;;;;3.42;3.12;;;;;;;5.04;51.38;99232.65;1742985;82;21060;-63
2022/03/05 00:15:55;;;;;;;3.45;2.90;;;;;;;5.06;51.38;99224.14;1757559;80;20985;-62
2022/03/05 00:18:23;;;;;;;3.47;3.17;;;;;;;5.08;51.40;99227.45;1756059;80;21411;-62
2022/03/05 00:20:53;;;;;;;3.22;2.77;;;;;;;5.05;51.50;99224.62;1743614;80;20912;-62
2022/03/05 00:23:20;;;;;;;3.50;2.92;;;;;;;5.05;51.55;99226.41;1750714;80;20897;-63
2022/03/05 00:25:47;;;;;;;3.98;2.75;;;;;;;4.90;51.92;99224.72;1772516;80;20908;-64
2022/03/05 00:28:14;;;;;;;3.40;3.00;;;;;;;4.87;52.07;99220.55;1744868;80;20929;-65
2022/03/05 00:30:41;;;;;;;4.17;2.98;;;;;;;4.88;52.13;99220.88;1756957;80;21246;-63
2022/03/05 00:33:08;;;;;;;3.60;2.92;;;;;;;4.87;52.13;99219.23;1748621;80;21533;-64
2022/03/05 00:35:35;;;;;;;3.60;2.87;;;;;;;4.87;52.11;99223.19;1773329;80;20963;-62
2022/03/05 00:38:03;;;;;;;3.27;2.75;;;;;;;4.88;51.99;99216.93;1766772;80;21492;-62
2022/03/05 00:40:30;;;;;;;3.15;2.65;;;;;;;4.88;52.07;99215.61;1754359;80;20943;-62
2022/03/05 00:42:57;;;;;;;3.65;2.85;;;;;;;4.91;52.11;99216.66;1764692;80;21320;-61
2022/03/05 00:45:24;;;;;;;3.50;3.15;;;;;;;4.78;52.42;99217.43;1760569;80;20936;-61
2022/03/05 00:47:52;;;;;;;3.30;2.87;;;;;;;4.78;52.40;99222.70;1762023;80;21517;-63
2022/03/05 00:50:19;;;;;;;3.95;3.00;;;;;;;4.77;52.45;99223.66;1762968;80;20982;-61
2022/03/05 00:52:46;;;;;;;2.98;2.67;;;;;;;4.79;52.44;99221.73;1773100;80;21039;-61
2022/03/05 00:55:13;;;;;;;3.33;2.75;;;;;;;4.79;52.48;99224.86;1743172;82;21231;-63
2022/03/05 00:57:40;;;;;;;2.90;2.55;;;;;;;4.79;52.53;99223.53;1743654;80;21003;-64
2022/03/05 01:00:10;;;;;;;3.05;2.75;;;;;;;4.75;52.68;99219.50;1756921;80;21036;-61
2022/03/05 01:02:41;;;;;;;3.77;2.90;;;;;;;4.72;52.78;99219.30;1744508;82;21462;-62
2022/03/05 01:05:10;;;;;;;3.90;3.00;;;;;;;4.73;52.80;99218.81;1772628;80;21070;-62
2022/03/05 01:07:37;;;;;;;4.83;3.60;;;;;;;4.73;52.80;99217.50;1764501;81;21192;-61
2022/03/05 01:10:05;;;;;;;4.15;3.02;;;;;;;4.69;52.85;99216.13;1757193;81;20998;-62
2022/03/05 01:12:35;;;;;;;3.52;2.85;;;;;;;4.65;52.86;99214.24;1771077;81;20999;-61
2022/03/05 01:15:03;;;;;;;3.67;3.12;;;;;;;4.63;52.94;99214.88;1766451;80;20995;-63
2022/03/05 01:17:31;;;;;;;3.10;2.58;;;;;;;4.63;52.96;99215.36;1756363;81;21282;-63
2022/03/05 01:19:59;;;;;;;3.52;2.62;;;;;;;4.61;52.92;99218.14;1737482;81;21235;-63
2022/03/05 01:22:26;;;;;;;4.75;3.15;;;;;;;4.61;52.93;99218.63;1735312;82;21417;-62
2022/03/05 01:24:53;;;;;;;3.90;3.10;;;;;;;4.61;52.89;99217.30;1763215;81;20983;-63
2022/03/05 01:27:22;;;;;;;2.92;2.55;;;;;;;4.56;53.01;99214.25;1750116;81;21010;-63
2022/03/05 01:29:50;;;;;;;3.58;2.55;;;;;;;4.54;53.07;99213.54;1744571;80;21058;-60
2022/03/05 01:32:17;;;;;;;4.17;2.65;;;;;;;4.57;53.06;99215.90;1741937;81;21218;-62
2022/03/05 01:34:44;;;;;;;2.90;2.45;;;;;;;4.58;53.07;99214.94;1742159;81;21006;-64
2022/03/05 01:37:11;;;;;;;4.72;2.70;;;;;;;4.60;53.12;99216.47;1751913;81;21005;-65
2022/03/05 01:39:38;;;;;;;2.55;2.25;;;;;;;4.60;53.04;99219.10;1679330;84;21338;-64
2022/03/05 01:42:06;;;;;;;3.27;2.20;;;;;;;4.59;53.01;99217.42;1718134;83;20915;-63
2022/03/05 01:44:33;;;;;;;3.27;2.22;;;;;;;4.60;53.06;99216.95;1744173;80;21267;-62
2022/03/05 01:47:04;;;;;;;4.12;2.35;;;;;;;4.56;53.12;99212.94;1749817;81;20888;-64
2022/03/05 01:49:31;;;;;;;2.58;2.33;;;;;;;4.57;53.23;99214.11;1739800;81;20975;-63
2022/03/05 01:51:58;;;;;;;2.47;2.22;;;;;;;4.59;53.20;99215.30;1744233;82;20988;-63
2022/03/05 01:54:25;;;;;;;5.08;2.40;;;;;;;4.55;53.24;99218.69;1743587;82;20885;-62
2022/03/05 01:56:52;;;;;;;2.67;2.47;;;;;;;4.55;53.24;99221.80;1744542;80;21218;-64
2022/03/05 01:59:19;;;;;;;3.50;2.55;;;;;;;4.55;53.26;99216.05;1727527;82;20962;-60
2022/03/05 02:01:46;;;;;;;2.90;2.35;;;;;;;4.57;53.22;99222.01;1725414;81;20992;-61
2022/03/05 02:04:13;;;;;;;2.95;2.27;;;;;;;4.60;53.21;99219.58;1748651;80;20907;-62
2022/03/05 02:06:41;;;;;;;2.55;1.92;;;;;;;4.62;53.19;99225.53;1773530;80;20990;-63
2022/03/05 02:09:08;;;;;;;3.42;2.40;;;;;;;4.62;53.16;99218.47;1751555;80;21473;-60
2022/03/05 02:11:35;;;;;;;2.62;2.08;;;;;;;4.60;53.19;99224.85;1743003;81;20971;-63
2022/03/05 02:14:03;;;;;;;3.95;2.40;;;;;;;4.62;53.20;99223.73;1743371;81;21026;-63
2022/03/05 02:16:30;;;;;;;3.08;2.20;;;;;;;4.66;53.12;99222.51;1758213;81;20896;-61
2022/03/05 02:18:59;;;;;;;2.50;2.10;;;;;;;4.66;53.02;99226.94;1740394;81;21009;-61
2022/03/05 02:21:27;;;;;;;4.22;2.35;;;;;;;4.64;53.05;99227.57;1730313;81;21251;-63
2022/03/05 02:23:54;;;;;;;4.12;2.20;;;;;;;4.65;52.95;99226.58;1725868;81;20996;-60
2022/03/05 02:26:22;;;;;;;2.90;2.42;;;;;;;4.64;52.89;99228.89;1741495;81;21530;-63
2022/03/05 02:28:50;;;;;;;3.15;2.45;;;;;;;4.63;52.96;99228.05;1752344;80;20999;-60
2022/03/05 02:31:17;;;;;;;2.75;2.33;;;;;;;4.62;53.09;99231.64;1750015;80;21402;-61
2022/03/05 02:33:44;;;;;;;3.80;2.37;;;;;;;4.65;53.06;99231.37;1749660;80;21921;-60
2022/03/05 02:36:12;;;;;;;3.05;2.67;;;;;;;4.65;53.04;99232.69;1745332;80;21492;-61
2022/03/05 02:38:39;;;;;;;3.25;2.37;;;;;;;4.66;53.02;99239.64;1743661;80;20992;-62
2022/03/05 02:41:06;;;;;;;3.83;2.65;;;;;;;4.68;53.02;99241.64;1742459;81;20947;-62
2022/03/05 02:43:33;;;;;;;2.85;2.42;;;;;;;4.68;53.13;99244.27;1754127;80;21021;-61
2022/03/05 02:46:00;;;;;;;2.92;2.27;;;;;;;4.69;53.17;99241.16;1743008;80;21310;-63
2022/03/05 02:48:27;;;;;;;3.47;2.70;;;;;;;4.72;53.14;99239.06;1746197;80;21432;-61
2022/03/05 02:50:54;;;;;;;2.83;2.40;;;;;;;4.73;53.05;99247.80;1745131;80;20976;-62
2022/03/05 02:53:21;;;;;;;2.95;2.20;;;;;;;4.71;53.10;99251.07;1761159;80;20929;-63
2022/03/05 02:55:48;;;;;;;3.37;2.35;;;;;;;4.70;53.19;99247.59;1743728;80;20959;-62
2022/03/05 02:58:15;;;;;;;2.92;2.10;;;;;;;4.79;53.03;99248.58;1736696;82;21874;-64
2022/03/05 03:00:42;;;;;;;2.83;2.12;;;;;;;4.84;52.70;99252.94;1753227;80;20888;-61
2022/03/05 03:03:10;;;;;;;2.62;2.37;;;;;;;4.69;53.03;99244.60;1772803;80;20931;-62
2022/03/05 03:05:37;;;;;;;3.02;2.58;;;;;;;4.68;53.14;99254.81;1760769;80;21446;-62
2022/03/05 03:08:05;;;;;;;2.72;2.33;;;;;;;4.69;53.13;99245.11;1745676;81;21037;-63
2022/03/05 03:10:32;;;;;;;3.05;2.72;;;;;;;4.67;53.17;99250.50;1729562;82;21647;-62
2022/03/05 03:12:59;;;;;;;3.33;2.60;;;;;;;4.58;53.31;99250.52;1732248;81;21000;-65
2022/03/05 03:15:27;;;;;;;3.02;2.58;;;;;;;4.54;53.41;99256.53;1738882;81;20921;-60
2022/03/05 03:17:54;;;;;;;3.37;2.10;;;;;;;4.54;53.43;99258.33;1732560;81;20939;-62
2022/03/05 03:20:26;;;;;;;2.33;1.90;;;;;;;4.53;53.47;99252.25;1725467;81;20996;-61
2022/03/05 03:22:55;;;;;;;2.83;2.30;;;;;;;4.50;53.51;99255.16;1757505;81;21262;-62
2022/03/05 03:25:22;;;;;;;2.90;2.20;;;;;;;4.45;53.49;99257.37;1761118;81;20919;-61
2022/03/05 03:27:50;;;;;;;2.45;2.25;;;;;;;4.41;53.58;99259.91;1746386;81;21462;-62
2022/03/05 03:30:17;;;;;;;3.02;2.67;;;;;;;4.38;53.69;99264.13;1738544;81;21438;-62
2022/03/05 03:32:45;;;;;;;2.87;2.50;;;;;;;4.37;53.74;99266.44;1682835;85;21611;-62
2022/03/05 03:35:13;;;;;;;2.50;2.08;;;;;;;4.33;53.82;99265.02;1731563;81;21970;-60
2022/03/05 03:37:41;;;;;;;2.08;1.87;;;;;;;4.28;53.77;99263.28;1731883;81;21489;-62
2022/03/05 03:40:10;;;;;;;3.12;2.20;;;;;;;4.30;53.69;99264.00;1733501;81;21030;-65
2022/03/05 03:42:38;;;;;;;3.83;2.33;;;;;;;4.28;53.69;99267.23;1731423;81;21292;-60
2022/03/05 03:45:07;;;;;;;2.42;2.22;;;;;;;4.25;53.77;99269.66;1733017;81;21528;-61
2022/03/05 03:47:34;;;;;;;3.22;2.45;;;;;;;4.26;53.76;99267.86;1733525;81;21221;-62
2022/03/05 03:50:01;;;;;;;2.10;1.80;;;;;;;4.25;53.81;99269.66;1730862;81;20981;-60
2022/03/05 03:52:28;;;;;;;2.85;2.20;;;;;;;4.28;53.80;99272.50;1731029;81;20956;-61
2022/03/05 03:54:55;;;;;;;2.40;2.20;;;;;;;4.33;53.71;99267.66;1731661;81;21431;-62
2022/03/05 03:57:22;;;;;;;2.62;2.20;;;;;;;4.36;53.62;99270.86;1732066;81;21041;-63
2022/03/05 03:59:51;;;;;;;2.80;2.40;;;;;;;4.38;53.55;99271.55;1728261;81;21236;-63
2022/03/05 04:02:21;;;;;;;2.30;2.08;;;;;;;4.40;53.48;99275.39;1731921;81;21080;-63
2022/03/05 04:04:48;;;;;;;2.12;1.92;;;;;;;4.41;53.40;99270.95;1732366;81;20929;-63
2022/03/05 04:10:05;;;;;;;3.55;2.12;;;;;;;4.46;53.27;99274.02;1736851;81;20850;-62
2022/03/05 04:12:34;;;;;;;2.95;2.37;;;;;;;4.48;53.16;99274.22;1736801;82;20905;-63
2022/03/05 04:15:01;;;;;;;2.33;2.12;;;;;;;4.48;53.22;99279.97;1734935;82;21012;-63
2022/03/05 04:17:30;;;;;;;3.20;2.52;;;;;;;4.52;53.14;99276.92;1725587;82;21553;-64
2022/03/05 04:19:58;;;;;;;2.58;2.30;;;;;;;4.52;53.12;99276.92;1743437;81;21570;-62
2022/03/05 04:22:26;;;;;;;2.67;2.17;;;;;;;4.53;53.04;99283.86;1710646;82;21468;-64
2022/03/05 04:24:53;;;;;;;3.83;2.87;;;;;;;4.54;52.98;99283.35;1735473;82;21264;-61
2022/03/05 04:27:20;;;;;;;2.52;2.08;;;;;;;4.52;52.96;99286.61;1710333;82;20947;-62
2022/03/05 04:29:48;;;;;;;2.87;2.40;;;;;;;4.48;52.94;99286.08;1710033;81;21525;-63
2022/03/05 04:32:15;;;;;;;3.33;2.12;;;;;;;4.46;53.02;99287.98;1730867;81;21500;-63
2022/03/05 04:34:43;;;;;;;3.17;2.25;;;;;;;4.46;52.97;99289.31;1733089;82;21444;-62
2022/03/05 04:37:10;;;;;;;2.70;2.33;;;;;;;4.47;53.00;99291.47;1728203;82;21245;-63
2022/03/05 04:39:37;;;;;;;2.47;2.27;;;;;;;4.47;53.01;99296.25;1728171;83;20941;-61
2022/03/05 04:42:05;;;;;;;2.65;2.42;;;;;;;4.48;53.02;99297.93;1728712;81;21621;-60
2022/03/05 04:44:32;;;;;;;3.05;2.42;;;;;;;4.47;53.03;99293.62;1733003;82;20945;-63
2022/03/05 04:46:59;;;;;;;3.42;2.85;;;;;;;4.50;53.09;99297.30;1723814;81;21028;-63
2022/03/05 04:49:26;;;;;;;2.17;1.98;;;;;;;4.52;53.23;99303.73;1737351;81;21327;-63
2022/03/05 04:51:53;;;;;;;2.77;2.40;;;;;;;4.52;53.24;99308.53;1737717;82;20878;-65
2022/03/05 04:54:20;;;;;;;3.52;2.33;;;;;;;4.53;53.18;99310.69;1733522;82;20990;-61
2022/03/05 04:56:48;;;;;;;2.40;2.02;;;;;;;4.54;53.13;99312.33;1726731;82;21510;-64
2022/03/05 04:59:15;;;;;;;2.50;2.30;;;;;;;4.54;53.09;99314.97;1725488;81;21031;-62
2022/03/05 05:01:42;;;;;;;3.58;2.20;;;;;;;4.51;53.17;99316.58;1729990;82;21242;-62
2022/03/05 05:04:09;;;;;;;2.67;2.12;;;;;;;4.50;53.25;99313.11;1737487;82;21012;-61
2022/03/05 05:06:36;;;;;;;2.60;2.22;;;;;;;4.51;53.22;99321.85;1737868;81;21043;-61
2022/03/05 05:09:03;;;;;;;2.70;2.20;;;;;;;4.52;53.22;99323.02;1744645;80;21494;-65
2022/03/05 05:11:30;;;;;;;3.40;2.50;;;;;;;4.51;53.23;99324.48;1765422;80;21007;-59
2022/03/05 05:13:57;;;;;;;2.60;2.40;;;;;;;4.47;53.27;99331.81;1770994;80;21391;-62
2022/03/05 05:16:24;;;;;;;2.55;2.20;;;;;;;4.47;53.26;99326.55;1757061;80;20889;-64
2022/03/05 05:21:41;;;;;;;4.12;2.37;;;;;;;4.52;53.28;99332.72;1746309;80;21557;-63
2022/03/05 05:24:09;;;;;;;2.98;2.35;;;;;;;4.55;53.23;99333.77;1708448;82;20980;-61
2022/03/05 05:26:36;;;;;;;2.52;2.33;;;;;;;4.54;53.23;99335.56;1761978;80;21229;-61
2022/03/05 05:29:04;;;;;;;3.15;2.72;;;;;;;4.56;53.22;99334.12;1771734;80;20875;-60
2022/03/05 05:31:31;;;;;;;3.17;2.80;;;;;;;4.57;53.19;99337.09;1761570;80;21486;-63
2022/03/05 05:33:58;;;;;;;2.92;2.35;;;;;;;4.60;53.18;99341.62;1712759;82;21868;-64
2022/03/05 05:36:25;;;;;;;2.95;2.40;;;;;;;4.61;53.18;99335.39;1767221;80;20849;-63
2022/03/05 05:38:52;;;;;;;4.12;2.25;;;;;;;4.59;53.14;99337.31;1745241;80;21308;-62
2022/03/05 05:41:20;;;;;;;4.53;2.22;;;;;;;4.59;53.13;99337.31;1773110;80;20887;-61
2022/03/05 05:43:47;;;;;;;3.70;2.35;;;;;;;4.59;53.17;99341.26;1755495;80;20907;-60
2022/03/05 05:46:16;;;;;;;3.58;2.27;;;;;;;4.58;53.21;99347.52;1762033;80;20923;-61
2022/03/05 05:48:43;;;;;;;2.95;1.80;;;;;;;4.58;53.30;99348.00;1767718;80;20880;-64
2022/03/05 05:51:10;;;;;;;3.10;2.62;;;;;;;4.58;53.24;99348.83;1759593;80;21279;-62
2022/03/05 05:53:39;;;;;;;3.22;2.67;;;;;;;4.57;53.14;99351.11;1750697;80;20935;-63
2022/03/05 05:56:06;;;;;;;3.72;2.60;;;;;;;4.57;53.14;99352.91;1745118;81;21469;-61
2022/03/05 05:58:33;;;;;;;3.20;2.67;;;;;;;4.55;53.14;99357.00;1740881;81;21395;-60
2022/03/05 06:01:01;;;;;;;2.50;2.08;;;;;;;4.56;53.14;99355.20;1759002;80;21046;-62
2022/03/05 06:03:28;;;;;;;2.50;2.02;;;;;;;4.54;53.16;99355.80;1767891;80;21245;-64
2022/03/05 06:05:58;;;;;;;7.58;2.77;;;;;;;4.50;53.18;99364.95;1752099;80;20908;-62
2022/03/05 06:08:26;;;;;;;3.20;2.90;;;;;;;4.47;53.26;99368.70;1749298;80;20889;-60
2022/03/05 06:10:54;;;;;;;4.08;3.22;;;;;;;4.47;53.29;99366.54;1747218;80;20996;-61
2022/03/05 06:13:21;;;;;;;10.13;3.00;;;;;;;4.46;53.41;99372.80;1740617;81;21048;-63
2022/03/05 06:15:51;;;;;;;3.65;2.80;;;;;;;4.45;53.42;99368.00;1744553;80;20976;-61
2022/03/05 06:18:23;;;;;;;3.92;2.85;;;;;;;4.45;53.45;99374.59;1773182;80;20974;-63
2022/03/05 06:20:50;;;;;;;3.33;2.83;;;;;;;4.47;53.34;99377.91;1747991;80;21071;-63
2022/03/05 06:23:18;;;;;;;3.55;2.40;;;;;;;4.44;53.28;99376.86;1743846;82;20969;-60
2022/03/05 06:25:45;;;;;;;3.75;2.40;;;;;;;4.45;53.33;99375.91;1747793;80;20892;-65
2022/03/05 06:28:13;;;;;;;2.72;2.42;;;;;;;4.49;53.29;99381.72;1744634;81;21240;-63
2022/03/05 06:30:40;;;;;;;2.65;1.80;;;;;;;4.48;53.24;99382.70;1747641;80;21515;-63
2022/03/05 06:33:07;;;;;;;3.70;2.27;;;;;;;4.50;53.27;99382.92;1745392;80;22292;-64
2022/03/05 06:35:34;;;;;;;5.42;3.45;;;;;;;4.54;53.08;99384.78;1758756;80;20948;-61
2022/03/05 06:38:04;;;;;;;3.98;2.85;;;;;;;4.56;53.00;99386.34;1771469;80;20871;-63
2022/03/05 06:40:36;;;;;;;4.12;2.75;;;;;;;4.61;52.97;99388.56;1773515;80;21268;-65
2022/03/05 06:43:03;;;;;;;3.10;2.30;;;;;;;4.62;52.87;99388.42;1773048;80;20927;-62
2022/03/05 06:45:30;;;;;;;2.87;2.12;;;;;;;4.67;52.75;99396.75;1773281;80;20903;-63
2022/03/05 06:47:57;;;;;;;2.15;1.90;;;;;;;4.67;52.74;99390.64;1772379;80;20911;-65
2022/03/05 06:50:24;;;;;;;2.15;1.90;;;;;;;4.72;52.59;99397.69;1770522;80;20888;-63
2022/03/05 06:52:51;;;;;;;2.40;1.90;;;;;;;4.74;52.49;99397.06;1762973;80;21232;-61
2022/03/05 06:55:18;;;;;;;4.37;2.52;;;;;;;4.83;52.34;99400.19;1759600;80;21014;-67
2022/03/05 06:57:45;;;;;;;6.00;2.00;;;;;;;4.85;52.17;99401.72;1757105;80;20983;-59
2022/03/05 07:00:14;;;;;;;2.75;2.22;;;;;;;4.83;52.20;99406.30;1761178;80;21015;-64
2022/03/05 07:02:42;;;;;;;4.87;2.27;;;;;;;4.87;52.12;99411.66;1756318;80;21479;-64
2022/03/05 07:05:10;;;;;;;3.22;2.20;;;;;;;4.90;52.15;99415.83;1762246;80;21145;-63
2022/03/05 07:07:37;;;;;;;3.42;2.25;;;;;;;4.93;52.17;99416.38;1745261;80;21060;-63
2022/03/05 07:10:06;;;;;;;5.17;2.98;;;;;;;4.95;52.12;99422.84;1732803;82;20904;-61
2022/03/05 07:12:34;;;;;;;3.67;2.35;;;;;;;4.99;52.00;99425.06;1723953;82;21101;-62
2022/03/05 07:15:02;;;;;;;3.15;2.45;;;;;;;5.00;52.01;99425.91;1720333;82;20936;-63
2022/03/05 07:17:29;;;;;;;3.05;2.45;;;;;;;5.03;51.94;99420.84;1708297;82;21261;-66
2022/03/05 07:19:57;;;;;;;3.27;2.30;;;;;;;5.04;51.76;99426.44;1724880;82;21037;-64
2022/03/05 07:22:24;;;;;;;2.67;2.20;;;;;;;5.04;51.77;99432.55;1721937;81;20920;-64
2022/03/05 07:24:51;;;;;;;3.95;2.42;;;;;;;5.05;51.65;99432.08;1726906;82;20951;-66
2022/03/05 07:27:18;;;;;;;3.27;2.35;;;;;;;5.02;51.63;99435.81;1715994;82;20892;-62
2022/03/05 07:29:46;;;;;;;6.42;3.20;;;;;;;5.05;51.48;99442.63;1726272;82;21851;-64
2022/03/05 07:32:15;;;;;;;5.53;2.50;;;;;;;5.02;51.51;99442.89;1718402;82;20944;-64
2022/03/05 07:34:42;;;;;;;2.27;2.08;;;;;;;4.99;51.64;99436.92;1719702;82;21521;-65
2022/03/05 07:37:10;;;;;;;7.60;2.52;;;;;;;5.01;51.68;99440.73;1725037;82;20978;-63
2022/03/05 07:39:37;;;;;;;2.30;2.00;;;;;;;4.97;51.76;99441.51;1719515;82;21513;-62
2022/03/05 07:42:06;;;;;;;2.22;1.90;;;;;;;5.03;51.62;99439.30;1718825;82;21291;-64
2022/03/05 07:44:34;;;;;;;3.20;2.35;;;;;;;5.01;51.62;99444.69;1722616;82;20912;-64
2022/03/05 07:47:04;;;;;;;2.92;2.37;;;;;;;5.06;51.45;99446.94;1733852;82;20999;-64
2022/03/05 07:49:31;;;;;;;2.10;1.90;;;;;;;5.01;51.43;99442.05;1719882;82;21059;-63
2022/03/05 07:51:58;;;;;;;2.22;1.95;;;;;;;4.99;51.49;99444.84;1722997;82;20911;-63
2022/03/05 07:54:26;;;;;;;3.12;1.98;;;;;;;5.02;51.55;99443.73;1722587;82;21248;-63
2022/03/05 07:56:53;;;;;;;2.20;2.00;;;;;;;5.02;51.53;99445.53;1721482;82;21038;-63
2022/03/05 07:59:22;;;;;;;3.95;3.55;;;;;;;5.09;51.28;99446.64;1717258;82;20924;-64
2022/03/05 08:01:52;;;;;;;4.15;3.15;;;;;;;5.10;51.30;99446.52;1722190;82;21031;-63
2022/03/05 08:04:21;;;;;;;2.87;2.22;;;;;;;5.11;51.27;99450.00;1715784;82;21587;-63
2022/03/05 08:06:50;;;;;;;3.75;2.25;;;;;;;5.12;51.22;99445.89;1714181;81;21213;-64
2022/03/05 08:09:17;;;;;;;2.40;2.10;;;;;;;5.14;51.20;99452.34;1741497;81;21002;-63
2022/03/05 08:11:46;;;;;;;2.58;2.05;;;;;;;5.18;51.16;99451.11;1748761;81;20896;-63
2022/03/05 08:14:13;;;;;;;2.98;2.20;;;;;;;5.21;51.17;99460.91;1741246;80;20998;-61
2022/03/05 08:16:41;;;;;;;2.60;2.37;;;;;;;5.27;51.10;99462.14;1738651;81;21062;-66
2022/03/05 08:19:09;;;;;;;1.92;1.62;;;;;;;5.31;50.91;99459.12;1750082;81;21294;-63
2022/03/05 08:21:38;;;;;;;3.17;2.12;;;;;;;5.31;50.86;99464.88;1693610;83;21028;-66
2022/03/05 08:24:06;;;;;;;2.50;2.00;;;;;;;5.31;50.82;99465.71;1694200;83;21074;-62
2022/03/05 08:26:33;;;;;;;2.22;2.00;;;;;;;5.29;50.61;99466.82;1696094;83;21007;-63
2022/03/05 08:29:00;;;;;;;2.30;2.00;;;;;;;5.29;50.65;99470.78;1693759;83;21074;-62
2022/03/05 08:31:28;;;;;;;3.05;1.98;;;;;;;5.28;50.64;99472.58;1698062;83;21230;-65
2022/03/05 08:33:58;;;;;;;6.22;2.58;;;;;;;5.28;50.66;99484.44;1695492;83;20872;-63
2022/03/05 08:36:26;;;;;;;3.02;2.50;;;;;;;5.28;50.78;99482.28;1699640;83;21095;-65
2022/03/05 08:38:53;;;;;;;4.15;2.50;;;;;;;5.25;50.85;99483.88;1696036;83;21010;-64
2022/03/05 08:41:20;;;;;;;3.83;2.40;;;;;;;5.23;50.94;99485.81;1693995;83;21569;-61
2022/03/05 08:43:47;;;;;;;4.15;2.17;;;;;;;5.19;50.91;99483.92;1701687;83;21261;-66
2022/03/05 08:46:14;;;;;;;3.15;2.02;;;;;;;5.18;50.94;99486.71;1689844;83;21478;-62
2022/03/05 08:48:41;;;;;;;2.05;1.85;;;;;;;5.15;51.03;99483.87;1738076;81;20924;-65
2022/03/05 08:51:08;;;;;;;2.27;1.90;;;;;;;5.17;51.14;99485.03;1741731;81;20928;-62
2022/03/05 08:53:35;;;;;;;1.95;1.75;;;;;;;5.17;51.17;99487.19;1745541;81;20853;-67
2022/03/05 08:56:02;;;;;;;3.35;1.92;;;;;;;5.25;51.12;99489.15;1747377;81;21526;-65
2022/03/05 08:58:30;;;;;;;3.35;2.22;;;;;;;5.26;51.14;99493.47;1737870;81;21575;-61
2022/03/05 09:00:59;;;;;;;2.42;1.77;;;;;;;5.27;51.21;99490.67;1746109;81;21047;-65
2022/03/05 09:03:26;;;;;;;2.02;1.80;;;;;;;5.21;51.37;99497.84;1727977;81;21479;-65
2022/03/05 09:05:53;;;;;;;3.08;2.08;;;;;;;5.21;51.36;99504.91;1741124;81;21059;-63
2022/03/05 09:08:21;;;;;;;2.58;2.20;;;;;;;5.20;51.34;99507.19;1733607;80;21318;-67
2022/03/05 09:10:49;;;;;;;2.65;2.17;;;;;;;5.19;51.37;99507.66;1744449;80;21023;-65
2022/03/05 09:13:17;;;;;;;1.67;1.57;;;;;;;5.21;51.38;99510.19;1752342;80;20959;-63
2022/03/05 09:15:45;;;;;;;3.05;1.95;;;;;;;5.25;51.39;99508.45;1766370;80;20947;-61
2022/03/05 09:18:12;;;;;;;4.53;1.77;;;;;;;5.29;51.39;99499.80;1758388;80;21047;-65
2022/03/05 09:20:46;;;;;;;3.70;1.72;;;;;;;5.31;51.36;99511.03;1752935;80;20952;-65
2022/03/05 09:23:14;;;;;;;2.87;1.92;;;;;;;5.31;51.29;99512.36;1756404;80;21485;-66
2022/03/05 09:25:42;;;;;;;2.02;1.70;;;;;;;5.29;51.41;99507.19;1768148;80;21579;-61
2022/03/05 09:28:08;;;;;;;2.20;2.00;;;;;;;5.31;51.38;99509.72;1748797;81;21039;-63
2022/03/05 09:30:37;;;;;;;1.85;1.70;;;;;;;5.34;51.40;99507.65;1734373;80;21090;-64
2022/03/05 09:33:04;;;;;;;2.85;1.90;;;;;;;5.39;51.42;99507.23;1755485;80;21274;-66
2022/03/05 09:35:31;;;;;;;2.98;2.00;;;;;;;5.37;51.42;99509.98;1754858;80;20975;-64
2022/03/05 09:37:58;;;;;;;2.83;2.02;;;;;;;5.39;51.44;99504.11;1749289;80;21478;-64
2022/03/05 09:40:27;;;;;;;2.50;1.77;;;;;;;5.42;51.42;99507.77;1755417;80;21038;-64
2022/03/05 09:42:54;;;;;;;2.72;1.90;;;;;;;5.48;51.39;99514.31;1755502;80;21524;-64
2022/03/05 09:45:22;;;;;;;2.00;1.80;;;;;;;5.49;51.29;99516.83;1759101;80;21245;-63
2022/03/05 09:47:49;;;;;;;1.85;1.65;;;;;;;5.51;51.41;99516.20;1752543;80;20963;-62
2022/03/05 09:50:17;;;;;;;2.17;1.70;;;;;;;5.53;51.29;99518.69;1761759;80;20951;-62
2022/03/05 09:52:44;;;;;;;2.55;1.72;;;;;;;5.50;51.27;99517.67;1753412;80;20880;-67
2022/03/05 09:55:11;;;;;;;2.02;1.70;;;;;;;5.48;51.27;99516.47;1756589;80;20959;-64
2022/03/05 09:57:39;;;;;;;1.62;1.40;;;;;;;5.49;51.30;99523.91;1754650;80;21151;-62
2022/03/05 10:00:07;;;;;;;4.65;2.20;;;;;;;5.47;51.39;99527.17;1764220;80;20910;-65
2022/03/05 10:02:38;;;;;;;2.22;2.02;;;;;;;5.51;51.42;99522.80;1751505;80;20979;-61
2022/03/05 10:05:21;;;;;;;2.42;1.98;;;;;;;5.49;51.34;99523.42;1758689;80;20896;-60
2022/03/05 10:08:20;;;;;;;3.35;2.30;;;;;;;5.44;51.26;99524.80;1749466;80;20936;-63
2022/03/05 10:10:54;;;;;;;2.20;1.60;;;;;;;5.44;51.28;99524.80;1742271;80;21454;-61
2022/03/05 10:13:30;;;;;;;7.05;2.30;;;;;;;5.41;51.35;99523.27;1763839;80;20959;-62
2022/03/05 10:16:02;;;;;;;1.98;1.80;;;;;;;5.41;51.35;99515.84;1754567;80;20994;-62
2022/03/05 10:18:36;;;;;;;2.80;1.85;;;;;;;5.43;51.38;99515.20;1752030;80;21058;-63
2022/03/05 10:21:08;;;;;;;3.70;1.77;;;;;;;5.44;51.44;99522.16;1741825;80;20927;-61
2022/03/05 10:23:42;;;;;;;2.10;1.70;;;;;;;5.47;51.48;99520.58;1744602;80;21883;-66
2022/03/05 10:26:10;;;;;;;2.17;1.77;;;;;;;5.51;51.35;99520.63;1755651;80;20970;-62
2022/03/05 10:28:38;;;;;;;3.77;1.55;;;;;;;5.50;51.21;99524.27;1760541;80;20945;-64
2022/03/05 10:31:09;;;;;;;2.35;1.75;;;;;;;5.51;51.01;99521.48;1746085;80;21465;-62
2022/03/05 10:33:44;;;;;;;2.08;1.37;;;;;;;5.47;50.85;99525.38;1758354;80;22177;-63
2022/03/05 10:36:25;;;;;;;2.25;1.70;;;;;;;5.48;50.89;99522.22;1765672;80;21243;-63
2022/03/05 10:39:04;;;;;;;2.62;2.00;;;;;;;5.53;50.81;99530.08;1759117;80;20952;-62
2022/03/05 10:41:37;;;;;;;3.50;1.87;;;;;;;5.51;50.89;99524.59;1757998;80;21521;-63
2022/03/05 10:44:15;;;;;;;2.92;1.70;;;;;;;5.49;51.03;99531.82;1765407;80;20954;-63
2022/03/05 10:46:59;;;;;;;3.58;2.08;;;;;;;5.48;50.99;99536.26;1765128;80;20911;-65
2022/03/05 10:49:38;;;;;;;2.70;2.20;;;;;;;5.47;50.82;99542.53;1751095;80;21169;-61
2022/03/05 10:52:08;;;;;;;3.02;2.50;;;;;;;5.42;50.80;99542.07;1761489;80;20979;-64
2022/03/05 10:54:42;;;;;;;3.95;2.02;;;;;;;5.43;50.82;99541.59;1744905;80;20911;-66
2022/03/05 10:57:21;;;;;;;2.77;2.02;;;;;;;5.42;50.87;99535.98;1754904;80;20967;-64
2022/03/05 10:59:52;;;;;;;2.90;1.87;;;;;;;5.38;50.85;99541.17;1747699;80;20988;-66
2022/03/05 11:02:24;;;;;;;2.33;2.10;;;;;;;5.38;50.82;99543.80;1746790;80;21182;-62
2022/03/05 11:04:54;;;;;;;3.27;1.77;;;;;;;5.42;50.82;99537.30;1751229;80;20899;-63
2022/03/05 11:07:25;;;;;;;4.05;1.85;;;;;;;5.45;50.80;99535.69;1748624;80;21123;-64
2022/03/05 11:09:54;;;;;;;1.47;1.35;;;;;;;5.50;50.68;99533.50;1749061;80;20963;-60
2022/03/05 11:12:24;;;;;;;2.40;1.77;;;;;;;5.54;50.59;99532.24;1755162;80;21520;-64
2022/03/05 11:14:54;;;;;;;2.58;1.65;;;;;;;5.56;50.48;99530.30;1753339;80;20975;-63
2022/03/05 11:17:25;;;;;;;3.22;1.87;;;;;;;5.62;50.23;99528.43;1760271;80;21085;-65
2022/03/05 11:19:56;;;;;;;2.20;1.95;;;;;;;5.67;49.95;99532.81;1756929;80;20961;-62
2022/03/05 11:22:27;;;;;;;2.75;2.02;;;;;;;5.73;49.77;99529.63;1756865;80;20986;-64
2022/03/05 11:24:56;;;;;;;2.77;2.33;;;;;;;5.82;49.50;99526.63;1760126;80;20955;-68
2022/03/05 11:27:25;;;;;;;2.77;1.95;;;;;;;5.88;49.20;99530.06;1753211;80;21167;-61
2022/03/05 11:29:57;;;;;;;3.30;2.10;;;;;;;5.96;48.99;99532.37;1758841;80;20982;-63
2022/03/05 11:32:30;;;;;;;2.65;2.20;;;;;;;6.05;48.62;99524.91;1749629;80;21003;-65
2022/03/05 11:34:59;;;;;;;3.45;1.87;;;;;;;6.10;48.44;99527.15;1762211;80;21007;-65
2022/03/05 11:37:35;;;;;;;4.92;2.42;;;;;;;6.19;48.12;99528.93;1754356;80;20954;-65
2022/03/05 11:40:06;;;;;;;3.00;2.12;;;;;;;6.20;47.93;99524.81;1759249;80;21492;-64
2022/03/05 11:42:37;;;;;;;1.85;1.50;;;;;;;6.21;47.68;99523.85;1755653;80;21415;-59
2022/03/05 11:45:30;;;;;;;4.28;1.90;;;;;;;6.27;47.14;99533.02;1748671;80;21516;-57
2022/03/05 11:48:26;;;;;;;4.35;1.95;;;;;;;6.27;47.13;99523.77;1752007;80;21485;-62
2022/03/05 11:50:58;;;;;;;4.15;2.00;;;;;;;6.34;46.99;99524.02;1751673;80;21415;-58
2022/03/05 11:53:28;;;;;;;2.98;1.52;;;;;;;6.42;46.91;99524.98;1757131;80;21584;-58